Buffalo Prairie, Illinois
Current Conditions -  °F | °C
As of 10:15 AM on Saturday 20 Dec 2014 (Local Time) from KMUT Reporting Station
Unknown Precip Unknown Precip  
Wind Chill: 26°   Ceiling: 1000
Heat Index: 32°   Visibility: 3mi
Dew Point: 28°   Wind: 6mph
Humidity: 87%   Direction: 150°SSE
Pressure: 30.26"   Gusts: NA
Location:  41.34°N, 90.86°W
Report Text: KMUT 201615Z AUTO 15005KT 3SM -UP BKN010 OVC029 00/M02 A3026 RMK AO2
Loading
Personal Weather Stations






























Interactive Weather Map New forecast layout! Learn more

10-Day Weather Forecast

Advertisements
Track Severe Weather on mobile